createdAt,value
2019-03-06T00:00:45.538Z,96226.11
2019-03-06T00:03:14.715Z,96227.05
2019-03-06T00:05:43.826Z,96226.22
2019-03-06T00:08:12.903Z,96226.22
2019-03-06T00:10:42.929Z,96220.79
2019-03-06T00:13:12.019Z,96221.73
2019-03-06T00:15:41.853Z,96215.09
2019-03-06T00:18:10.940Z,96215.91
2019-03-06T00:20:40.053Z,96212.81
2019-03-06T00:23:09.136Z,96212.06
2019-03-06T00:25:38.246Z,96212.15
2019-03-06T00:28:07.656Z,96211.63
2019-03-06T00:30:36.759Z,96215.09
2019-03-06T00:33:05.844Z,96216.22
2019-03-06T00:35:38.459Z,96210.49
2019-03-06T00:38:07.543Z,96203.22
2019-03-06T00:41:07.718Z,96197.77
2019-03-06T00:43:36.886Z,96196.59
2019-03-06T00:46:05.989Z,96193.41
2019-03-06T00:48:35.079Z,96189.86
2019-03-06T00:51:04.185Z,96189.91
2019-03-06T00:53:33.269Z,96186.01
2019-03-06T00:56:02.377Z,96180.98
2019-03-06T00:58:31.483Z,96185.23
2019-03-06T01:01:00.594Z,96181.87
2019-03-06T01:03:29.695Z,96181.38
2019-03-06T01:05:58.798Z,96179.55
2019-03-06T01:08:27.885Z,96179.62
2019-03-06T01:10:56.992Z,96181.30
2019-03-06T01:13:26.087Z,96181.59
2019-03-06T01:15:55.198Z,96180.80
2019-03-06T01:18:25.183Z,96173.41
2019-03-06T01:20:54.296Z,96175.08
2019-03-06T01:23:23.410Z,96175.37
2019-03-06T01:25:52.496Z,96168.51
2019-03-06T01:28:21.633Z,96168.81
2019-03-06T01:30:50.721Z,96165.63
2019-03-06T01:33:31.240Z,96162.64
2019-03-06T01:36:18.049Z,96164.80
2019-03-06T01:39:12.004Z,96159.98
2019-03-06T01:42:00.086Z,96162.35
2019-03-06T01:44:33.951Z,96155.20
2019-03-06T01:47:03.079Z,96157.70
2019-03-06T01:49:32.168Z,96149.24
2019-03-06T01:52:01.304Z,96144.39
2019-03-06T01:54:30.373Z,96133.74
2019-03-06T01:56:59.460Z,96135.93
2019-03-06T01:59:28.568Z,96136.37
2019-03-06T02:01:57.662Z,96135.04
2019-03-06T02:04:26.805Z,96126.26
2019-03-06T02:06:55.910Z,96120.94
2019-03-06T02:09:27.939Z,96116.23
2019-03-06T02:11:57.203Z,96128.69
2019-03-06T02:14:26.319Z,96126.38
2019-03-06T02:16:55.508Z,96115.95
2019-03-06T02:19:24.624Z,96106.63
2019-03-06T02:21:53.717Z,96102.45
2019-03-06T02:24:22.900Z,96097.31
2019-03-06T02:26:51.992Z,96102.09
2019-03-06T02:29:21.134Z,96095.75
2019-03-06T02:31:50.221Z,96099.48
2019-03-06T02:34:19.332Z,96093.84
2019-03-06T02:36:48.592Z,96081.61
2019-03-06T02:39:17.751Z,96082.13
2019-03-06T02:41:46.795Z,96072.05
2019-03-06T02:44:15.906Z,96078.48
2019-03-06T02:46:45.080Z,96076.63
2019-03-06T02:49:14.282Z,96071.68
2019-03-06T02:51:43.373Z,96067.13
2019-03-06T02:54:12.493Z,96072.16
2019-03-06T02:56:41.584Z,96074.58
2019-03-06T02:59:28.348Z,96067.02
2019-03-06T03:02:14.518Z,96064.93
2019-03-06T03:05:04.878Z,96062.21
2019-03-06T03:07:33.963Z,96050.56
2019-03-06T03:10:03.071Z,96038.28
2019-03-06T03:12:32.152Z,96042.00
2019-03-06T03:15:01.280Z,96045.66
2019-03-06T03:17:30.534Z,96051.20
2019-03-06T03:19:59.635Z,96042.00
2019-03-06T03:22:28.718Z,96040.37
2019-03-06T03:24:57.817Z,96031.09
2019-03-06T03:27:26.906Z,96034.18
2019-03-06T03:29:56.022Z,96032.86
2019-03-06T03:32:25.126Z,96030.66
2019-03-06T03:34:54.257Z,96031.86
2019-03-06T03:37:23.310Z,96029.14
2019-03-06T03:39:52.388Z,96026.25
2019-03-06T03:42:21.495Z,96037.87
2019-03-06T03:44:50.666Z,96037.81
2019-03-06T03:47:19.757Z,96026.00
2019-03-06T03:49:48.854Z,96019.54
2019-03-06T03:52:17.960Z,96016.63
2019-03-06T03:54:47.051Z,96011.43
2019-03-06T03:57:16.238Z,96012.56
2019-03-06T03:59:45.331Z,95999.53
2019-03-06T04:02:14.448Z,95998.50
2019-03-06T04:04:43.531Z,95998.85
2019-03-06T04:07:12.646Z,95999.68
2019-03-06T04:09:42.014Z,95991.22
2019-03-06T04:12:11.116Z,95993.66
2019-03-06T04:14:40.201Z,95982.91
2019-03-06T04:17:09.302Z,95987.23
2019-03-06T04:19:38.377Z,95989.21
2019-03-06T04:22:07.477Z,96001.45
2019-03-06T04:24:36.560Z,95993.94
2019-03-06T04:27:05.671Z,95993.12
2019-03-06T04:29:34.782Z,95988.92
2019-03-06T04:32:03.867Z,95988.42
2019-03-06T04:34:32.966Z,95983.61
2019-03-06T04:37:02.071Z,95980.95
2019-03-06T04:39:31.146Z,95980.02
2019-03-06T04:42:00.226Z,95987.61
2019-03-06T04:44:29.332Z,95982.13
2019-03-06T04:46:58.414Z,95977.73
2019-03-06T04:49:27.526Z,95972.66
2019-03-06T04:51:56.612Z,95970.14
2019-03-06T04:54:25.716Z,95969.63
2019-03-06T04:56:54.813Z,95969.85
2019-03-06T04:59:23.916Z,95970.30
2019-03-06T05:01:53.003Z,95976.69
2019-03-06T05:04:22.108Z,95975.74
2019-03-06T05:06:51.199Z,95968.94
2019-03-06T05:09:20.303Z,95956.45
2019-03-06T05:11:49.377Z,95960.52
2019-03-06T05:14:18.470Z,95947.16
2019-03-06T05:17:05.196Z,95943.64
2019-03-06T05:19:34.294Z,95934.98
2019-03-06T05:22:03.548Z,95926.56
2019-03-06T05:24:32.642Z,95928.81
2019-03-06T05:27:01.753Z,95920.97
2019-03-06T05:29:30.881Z,95910.21
2019-03-06T05:32:48.933Z,95916.78
2019-03-06T05:35:24.670Z,95904.72
2019-03-06T05:38:03.007Z,95906.47
2019-03-06T05:40:32.089Z,95907.65
2019-03-06T05:43:01.200Z,95894.98
2019-03-06T05:45:30.295Z,95884.56
2019-03-06T05:47:59.379Z,95885.51
2019-03-06T05:50:28.491Z,95867.41
2019-03-06T05:52:57.567Z,95861.41
2019-03-06T05:55:26.657Z,95856.56
2019-03-06T05:57:55.735Z,95853.89
2019-03-06T06:00:26.452Z,95860.15
2019-03-06T06:02:55.526Z,95847.71
2019-03-06T06:05:24.632Z,95845.58
2019-03-06T06:07:53.706Z,95851.74
2019-03-06T06:10:22.802Z,95840.25
2019-03-06T06:12:52.315Z,95838.42
2019-03-06T06:15:21.420Z,95827.04
2019-03-06T06:17:50.498Z,95832.16
2019-03-06T06:20:19.597Z,95833.73
2019-03-06T06:23:06.462Z,95829.52
2019-03-06T06:25:35.845Z,95842.28
2019-03-06T06:28:04.922Z,95838.32
2019-03-06T06:30:34.127Z,95828.47
2019-03-06T06:33:03.212Z,95838.84
2019-03-06T06:35:32.309Z,95837.05
2019-03-06T06:38:01.383Z,95834.13
2019-03-06T06:40:30.484Z,95830.75
2019-03-06T06:42:59.559Z,95823.31
2019-03-06T06:45:28.669Z,95818.50
2019-03-06T06:48:28.841Z,95823.86
2019-03-06T06:51:52.737Z,95820.84
2019-03-06T06:54:27.391Z,95820.84
2019-03-06T06:57:15.233Z,95809.68
2019-03-06T07:00:12.590Z,95812.06
2019-03-06T07:03:25.414Z,95816.31
2019-03-06T07:06:05.593Z,95817.42
2019-03-06T07:08:52.374Z,95813.45
2019-03-06T07:11:39.087Z,95805.45
2019-03-06T07:14:18.490Z,95810.53
2019-03-06T07:16:57.626Z,95806.59
2019-03-06T07:19:57.672Z,95784.87
2019-03-06T07:22:44.490Z,95791.05
2019-03-06T07:25:30.991Z,95792.95
2019-03-06T07:28:37.278Z,95784.41
2019-03-06T07:31:21.484Z,95775.05
2019-03-06T07:34:07.679Z,95784.39
2019-03-06T07:36:48.853Z,95785.20
2019-03-06T07:39:23.693Z,95790.53
2019-03-06T07:42:20.937Z,95782.23
2019-03-06T07:45:59.088Z,95782.52
2019-03-06T07:48:40.919Z,95784.89
2019-03-06T07:51:27.482Z,95797.20
2019-03-06T07:54:21.742Z,95790.53
2019-03-06T07:56:53.998Z,95784.94
2019-03-06T07:59:23.094Z,95776.66
2019-03-06T08:02:04.647Z,95779.05
2019-03-06T08:04:33.742Z,95774.50
2019-03-06T08:07:12.848Z,95770.89
2019-03-06T08:09:41.946Z,95762.09
2019-03-06T08:12:30.034Z,95760.23
2019-03-06T08:15:36.303Z,95760.63
2019-03-06T08:18:11.787Z,95732.70
2019-03-06T08:20:49.022Z,95736.44
2019-03-06T08:23:55.203Z,95732.91
2019-03-06T08:26:24.309Z,95718.17
2019-03-06T08:28:53.487Z,95721.83
2019-03-06T08:31:27.155Z,95728.52
2019-03-06T08:33:56.236Z,95732.32
2019-03-06T08:36:25.345Z,95738.17
2019-03-06T08:38:54.424Z,95738.03
2019-03-06T08:41:23.527Z,95729.91
2019-03-06T08:43:52.616Z,95730.80
2019-03-06T08:46:40.684Z,95720.66
2019-03-06T08:49:28.738Z,95706.88
2019-03-06T08:52:12.894Z,95705.56
2019-03-06T08:54:54.034Z,95702.41
2019-03-06T08:57:31.832Z,95706.23
2019-03-06T09:00:38.164Z,95697.86
2019-03-06T09:03:26.680Z,95699.92
2019-03-06T09:06:23.586Z,95685.66
2019-03-06T09:09:10.044Z,95682.62
2019-03-06T09:11:57.742Z,95679.06
2019-03-06T09:14:44.451Z,95674.41
2019-03-06T09:17:35.705Z,95671.11
2019-03-06T09:20:23.551Z,95663.30
2019-03-06T09:23:26.852Z,95654.89
2019-03-06T09:26:13.556Z,95659.40
2019-03-06T09:29:00.498Z,95656.82
2019-03-06T09:31:35.243Z,95644.98
2019-03-06T09:34:14.417Z,95642.16
2019-03-06T09:37:02.492Z,95629.52
2019-03-06T09:39:38.493Z,95648.73
2019-03-06T09:42:32.764Z,95645.33
2019-03-06T09:45:35.793Z,95638.14
2019-03-06T09:48:22.273Z,95651.02
2019-03-06T09:51:06.780Z,95646.69
2019-03-06T09:53:44.974Z,95646.25
2019-03-06T09:56:31.966Z,95637.19
2019-03-06T09:59:12.280Z,95637.80
2019-03-06T10:02:06.475Z,95637.59
2019-03-06T10:04:47.888Z,95613.64
2019-03-06T10:07:41.792Z,95608.44
2019-03-06T10:10:28.299Z,95591.77
2019-03-06T10:13:25.287Z,95616.92
2019-03-06T10:16:19.430Z,95599.00
2019-03-06T10:18:59.208Z,95585.29
2019-03-06T10:21:28.258Z,95579.33
2019-03-06T10:23:57.368Z,95578.92
2019-03-06T10:26:28.794Z,95573.09
2019-03-06T10:28:57.567Z,95555.36
2019-03-06T10:31:26.659Z,95562.66
2019-03-06T10:33:55.768Z,95560.43
2019-03-06T10:36:24.850Z,95566.68
2019-03-06T10:38:53.949Z,95559.08
2019-03-06T10:41:23.310Z,95555.41
2019-03-06T10:43:52.412Z,95555.41
2019-03-06T10:46:21.494Z,95555.84
2019-03-06T10:48:50.610Z,95570.02
2019-03-06T10:51:19.971Z,95557.95
2019-03-06T10:53:49.079Z,95552.23
2019-03-06T10:56:18.344Z,95549.44
2019-03-06T10:58:47.446Z,95545.47
2019-03-06T11:01:17.084Z,95561.30
2019-03-06T11:04:08.028Z,95548.48
2019-03-06T11:06:37.287Z,95534.44
2019-03-06T11:09:09.499Z,95542.03
2019-03-06T11:11:38.636Z,95528.95
2019-03-06T11:14:08.585Z,95540.13
2019-03-06T11:16:37.786Z,95512.43
2019-03-06T11:19:08.614Z,95507.98
2019-03-06T11:21:37.803Z,95525.25
2019-03-06T11:24:07.505Z,95515.79
2019-03-06T11:26:36.937Z,95520.53
2019-03-06T11:29:08.742Z,95515.25
2019-03-06T11:31:38.009Z,95520.66
2019-03-06T11:34:07.755Z,95514.34
2019-03-06T11:36:36.947Z,95527.49
2019-03-06T11:39:10.323Z,95522.70
2019-03-06T11:41:39.698Z,95503.70
2019-03-06T11:44:10.205Z,95508.50
2019-03-06T11:46:39.297Z,95508.78
2019-03-06T11:49:08.387Z,95501.49
2019-03-06T11:51:37.471Z,95498.71
2019-03-06T11:54:06.572Z,95483.91
2019-03-06T11:56:35.849Z,95477.22
2019-03-06T11:59:05.055Z,95463.24
2019-03-06T12:01:35.753Z,95469.45
2019-03-06T12:04:05.231Z,95468.42
2019-03-06T12:06:34.413Z,95451.63
2019-03-06T12:09:04.610Z,95457.77
2019-03-06T12:11:33.926Z,95462.52
2019-03-06T12:14:03.044Z,95465.27
2019-03-06T12:16:32.145Z,95453.33
2019-03-06T12:19:01.233Z,95438.80
2019-03-06T12:21:30.342Z,95438.94
2019-03-06T12:23:59.426Z,95422.83
2019-03-06T12:26:29.007Z,95423.20
2019-03-06T12:28:58.117Z,95420.28
2019-03-06T12:31:27.233Z,95438.13
2019-03-06T12:33:56.315Z,95413.41
2019-03-06T12:36:25.425Z,95401.81
2019-03-06T12:38:54.507Z,95405.41
2019-03-06T12:41:23.608Z,95411.11
2019-03-06T12:43:52.702Z,95396.92
2019-03-06T12:46:24.300Z,95388.88
2019-03-06T12:49:04.085Z,95382.37
2019-03-06T12:51:33.546Z,95371.02
2019-03-06T12:54:02.845Z,95368.41
2019-03-06T12:56:31.959Z,95360.72
2019-03-06T12:59:01.049Z,95360.97
2019-03-06T13:01:30.172Z,95353.66
2019-03-06T13:03:59.399Z,95363.11
2019-03-06T13:06:28.439Z,95358.18
2019-03-06T13:08:58.159Z,95352.17
2019-03-06T13:11:27.267Z,95344.25
2019-03-06T13:13:56.350Z,95338.16
2019-03-06T13:16:25.861Z,95325.72
2019-03-06T13:18:54.942Z,95336.37
2019-03-06T13:21:24.071Z,95330.79
2019-03-06T13:23:53.150Z,95326.27
2019-03-06T13:26:22.263Z,95331.02
2019-03-06T13:28:57.521Z,95325.31
2019-03-06T13:31:22.193Z,95312.02
2019-03-06T13:34:10.430Z,95306.22
2019-03-06T13:36:39.547Z,95314.88
2019-03-06T13:39:09.383Z,95315.98
2019-03-06T13:41:38.625Z,95315.20
2019-03-06T13:44:07.998Z,95315.20
2019-03-06T13:46:37.226Z,95302.62
2019-03-06T13:49:06.306Z,95320.47
2019-03-06T13:51:35.420Z,95300.38
2019-03-06T13:54:04.598Z,95307.48
2019-03-06T13:56:33.698Z,95310.48
2019-03-06T13:59:02.780Z,95325.82
2019-03-06T14:01:31.877Z,95317.34
2019-03-06T14:04:00.974Z,95318.52
2019-03-06T14:06:30.079Z,95304.95
2019-03-06T14:08:59.161Z,95293.25
2019-03-06T14:11:28.466Z,95293.41
2019-03-06T14:13:57.551Z,95305.18
2019-03-06T14:16:26.758Z,95309.21
2019-03-06T14:18:55.866Z,95305.08
2019-03-06T14:21:24.970Z,95308.87
2019-03-06T14:23:54.073Z,95308.11
2019-03-06T14:26:23.162Z,95317.77
2019-03-06T14:28:52.291Z,95305.13
2019-03-06T14:31:23.225Z,95294.97
2019-03-06T14:33:52.466Z,95288.30
2019-03-06T14:36:21.543Z,95289.02
2019-03-06T14:38:50.644Z,95294.47
2019-03-06T14:41:19.727Z,95296.23
2019-03-06T14:43:49.115Z,95284.58
2019-03-06T14:46:18.221Z,95283.87
2019-03-06T14:48:47.326Z,95281.63
2019-03-06T14:51:16.420Z,95272.22
2019-03-06T14:53:45.537Z,95266.94
2019-03-06T14:56:14.628Z,95270.24
2019-03-06T14:58:43.924Z,95269.61
2019-03-06T15:01:13.030Z,95272.72
2019-03-06T15:03:42.147Z,95277.33
2019-03-06T15:06:12.709Z,95275.05
2019-03-06T15:08:41.932Z,95260.13
2019-03-06T15:11:11.018Z,95266.47
2019-03-06T15:13:40.313Z,95265.52
2019-03-06T15:16:09.398Z,95271.72
2019-03-06T15:18:38.504Z,95262.42
2019-03-06T15:21:07.622Z,95259.35
2019-03-06T15:23:36.734Z,95251.31
2019-03-06T15:26:05.824Z,95251.72
2019-03-06T15:28:34.938Z,95251.00
2019-03-06T15:31:04.050Z,95259.00
2019-03-06T15:33:33.185Z,95246.82
2019-03-06T15:36:02.476Z,95253.05
2019-03-06T15:38:31.558Z,95248.61
2019-03-06T15:41:00.671Z,95243.47
2019-03-06T15:43:29.763Z,95246.22
2019-03-06T15:45:58.882Z,95245.02
2019-03-06T15:48:27.967Z,95239.05
2019-03-06T15:50:57.082Z,95239.66
2019-03-06T15:53:26.169Z,95237.45
2019-03-06T15:55:56.647Z,95227.34
2019-03-06T15:58:25.740Z,95230.04
2019-03-06T16:00:54.950Z,95230.19
2019-03-06T16:03:24.043Z,95223.25
2019-03-06T16:05:53.151Z,95227.83
2019-03-06T16:08:22.254Z,95231.53
2019-03-06T16:10:51.370Z,95231.11
2019-03-06T16:13:20.554Z,95234.19
2019-03-06T16:15:49.666Z,95225.05
2019-03-06T16:18:18.855Z,95236.42
2019-03-06T16:20:47.963Z,95232.71
2019-03-06T16:23:17.401Z,95225.20
2019-03-06T16:25:46.558Z,95223.78
2019-03-06T16:28:15.657Z,95231.77
2019-03-06T16:30:45.179Z,95241.19
2019-03-06T16:33:14.248Z,95246.36
2019-03-06T16:35:43.339Z,95261.80
2019-03-06T16:38:12.718Z,95262.33
2019-03-06T16:40:41.916Z,95259.83
2019-03-06T16:43:11.024Z,95253.73
2019-03-06T16:45:40.106Z,95242.55
2019-03-06T16:48:09.313Z,95238.01
2019-03-06T16:50:38.496Z,95232.23
2019-03-06T16:53:07.774Z,95222.59
2019-03-06T16:55:36.974Z,95217.62
2019-03-06T16:58:06.180Z,95223.30
2019-03-06T17:00:35.381Z,95215.55
2019-03-06T17:03:04.931Z,95214.02
2019-03-06T17:05:34.087Z,95216.83
2019-03-06T17:08:03.699Z,95216.80
2019-03-06T17:10:33.047Z,95204.95
2019-03-06T17:13:02.547Z,95192.41
2019-03-06T17:15:32.223Z,95195.38
2019-03-06T17:18:01.524Z,95187.33
2019-03-06T17:20:31.201Z,95191.42
2019-03-06T17:23:00.307Z,95198.80
2019-03-06T17:25:29.699Z,95189.48
2019-03-06T17:27:59.016Z,95200.30
2019-03-06T17:30:28.371Z,95198.70
2019-03-06T17:33:02.061Z,95199.79
2019-03-06T17:35:31.551Z,95188.91
2019-03-06T17:38:00.856Z,95188.91
2019-03-06T17:40:31.450Z,95197.23
2019-03-06T17:43:00.553Z,95194.81
2019-03-06T17:45:29.662Z,95188.97
2019-03-06T17:47:58.922Z,95180.16
2019-03-06T17:50:28.138Z,95179.46
2019-03-06T17:52:57.514Z,95194.05
2019-03-06T17:55:26.631Z,95189.52
2019-03-06T17:57:55.706Z,95187.02
2019-03-06T18:00:31.205Z,95190.78
2019-03-06T18:03:00.547Z,95190.05
2019-03-06T18:05:29.647Z,95183.69
2019-03-06T18:07:58.725Z,95185.44
2019-03-06T18:10:29.175Z,95191.66
2019-03-06T18:12:58.329Z,95183.07
2019-03-06T18:15:27.878Z,95180.16
2019-03-06T18:17:56.950Z,95178.63
2019-03-06T18:20:26.065Z,95177.18
2019-03-06T18:22:55.434Z,95160.34
2019-03-06T18:25:24.529Z,95156.41
2019-03-06T18:27:53.615Z,95161.68
2019-03-06T18:30:23.031Z,95142.36
2019-03-06T18:32:52.106Z,95135.52
2019-03-06T18:35:21.334Z,95125.69
2019-03-06T18:37:50.612Z,95114.98
2019-03-06T18:40:19.745Z,95112.81
2019-03-06T18:42:48.931Z,95108.73
2019-03-06T18:45:18.526Z,95102.48
2019-03-06T18:47:47.609Z,95098.98
2019-03-06T18:50:17.952Z,95092.09
2019-03-06T18:52:47.116Z,95087.47
2019-03-06T18:55:16.571Z,95078.95
2019-03-06T18:57:45.679Z,95082.00
2019-03-06T19:00:19.948Z,95085.64
2019-03-06T19:02:49.230Z,95084.24
2019-03-06T19:05:19.098Z,95083.45
2019-03-06T19:07:49.813Z,95080.64
2019-03-06T19:10:19.201Z,95071.36
2019-03-06T19:12:48.572Z,95070.95
2019-03-06T19:15:18.898Z,95070.25
2019-03-06T19:17:47.992Z,95065.94
2019-03-06T19:20:19.428Z,95070.25
2019-03-06T19:22:48.764Z,95075.73
2019-03-06T19:25:18.005Z,95078.92
2019-03-06T19:27:47.397Z,95073.91
2019-03-06T19:30:20.742Z,95083.70
2019-03-06T19:32:49.947Z,95081.99
2019-03-06T19:35:20.661Z,95074.92
2019-03-06T19:37:51.101Z,95075.27
2019-03-06T19:40:20.587Z,95061.28
2019-03-06T19:42:49.696Z,95065.05
2019-03-06T19:45:19.336Z,95057.10
2019-03-06T19:47:50.467Z,95059.39
2019-03-06T19:50:20.441Z,95050.92
2019-03-06T19:52:49.751Z,95050.00
2019-03-06T19:55:19.489Z,95045.64
2019-03-06T19:57:56.965Z,95044.78
2019-03-06T20:00:26.696Z,95026.56
2019-03-06T20:02:56.017Z,95020.94
2019-03-06T20:05:25.744Z,95013.45
2019-03-06T20:07:55.969Z,95008.68
2019-03-06T20:10:25.252Z,95015.42
2019-03-06T20:12:54.352Z,95019.41
2019-03-06T20:15:23.506Z,95010.35
2019-03-06T20:17:52.611Z,95011.73
2019-03-06T20:20:21.697Z,95001.08
2019-03-06T20:22:50.869Z,95003.76
2019-03-06T20:25:20.381Z,94997.52
2019-03-06T20:27:49.462Z,95001.93
2019-03-06T20:30:19.567Z,94996.27
2019-03-06T20:32:48.846Z,94992.21
2019-03-06T20:35:20.428Z,94995.45
2019-03-06T20:37:49.875Z,94994.41
2019-03-06T20:40:19.256Z,94985.41
2019-03-06T20:42:48.428Z,94998.61
2019-03-06T20:45:17.853Z,94990.95
2019-03-06T20:47:46.931Z,94997.03
2019-03-06T20:50:16.059Z,94994.23
2019-03-06T20:52:45.348Z,94979.98
2019-03-06T20:55:15.403Z,94974.61
2019-03-06T20:57:44.515Z,94977.55
2019-03-06T21:00:15.708Z,94969.00
2019-03-06T21:02:44.785Z,94970.59
2019-03-06T21:05:13.886Z,94986.56
2019-03-06T21:07:45.170Z,94979.48
2019-03-06T21:10:14.723Z,94969.61
2019-03-06T21:12:43.978Z,94975.81
2019-03-06T21:15:14.602Z,94983.48
2019-03-06T21:17:43.694Z,94985.41
2019-03-06T21:20:14.761Z,94976.89
2019-03-06T21:22:43.843Z,94975.02
2019-03-06T21:25:14.364Z,94969.44
2019-03-06T21:27:43.472Z,94979.58
2019-03-06T21:30:15.771Z,94970.91
2019-03-06T21:32:44.853Z,94975.98
2019-03-06T21:35:14.054Z,94971.66
2019-03-06T21:37:43.167Z,94961.47
2019-03-06T21:40:12.496Z,94957.03
2019-03-06T21:42:41.583Z,94966.67
2019-03-06T21:45:10.928Z,94967.25
2019-03-06T21:47:39.999Z,94954.72
2019-03-06T21:50:10.733Z,94964.96
2019-03-06T21:52:39.851Z,94957.22
2019-03-06T21:55:10.512Z,94959.90
2019-03-06T21:57:39.619Z,94959.73
2019-03-06T22:00:12.088Z,94958.77
2019-03-06T22:02:41.191Z,94959.14
2019-03-06T22:05:10.270Z,94962.16
2019-03-06T22:07:39.380Z,94956.32
2019-03-06T22:10:08.805Z,94955.92
2019-03-06T22:12:37.902Z,94957.52
2019-03-06T22:15:08.159Z,94978.00
2019-03-06T22:17:37.254Z,94963.56
2019-03-06T22:20:07.114Z,94956.08
2019-03-06T22:22:36.230Z,94959.62
2019-03-06T22:25:06.061Z,94947.17
2019-03-06T22:27:35.438Z,94954.05
2019-03-06T22:30:05.464Z,94961.58
2019-03-06T22:32:34.582Z,94947.56
2019-03-06T22:35:03.673Z,94939.24
2019-03-06T22:37:32.766Z,94938.52
2019-03-06T22:40:01.848Z,94928.67
2019-03-06T22:42:31.219Z,94928.27
2019-03-06T22:45:00.341Z,94936.67
2019-03-06T22:47:29.393Z,94927.11
2019-03-06T22:49:58.475Z,94927.47
2019-03-06T22:52:27.574Z,94932.14
2019-03-06T22:54:56.647Z,94927.62
2019-03-06T22:57:26.031Z,94924.44
2019-03-06T22:59:55.108Z,94918.35
2019-03-06T23:02:24.981Z,94925.34
2019-03-06T23:04:54.112Z,94917.59
2019-03-06T23:07:23.439Z,94909.66
2019-03-06T23:09:52.512Z,94892.94
2019-03-06T23:12:21.619Z,94900.55
2019-03-06T23:14:50.718Z,94899.31
2019-03-06T23:17:19.809Z,94896.59
2019-03-06T23:19:48.891Z,94891.84
2019-03-06T23:22:17.990Z,94889.61
2019-03-06T23:24:48.754Z,94881.55
2019-03-06T23:27:17.902Z,94875.04
2019-03-06T23:29:47.006Z,94869.72
2019-03-06T23:32:16.171Z,94863.28
2019-03-06T23:34:45.282Z,94861.58
2019-03-06T23:37:14.364Z,94862.89
2019-03-06T23:39:43.634Z,94853.34
2019-03-06T23:42:12.709Z,94847.03
2019-03-06T23:44:41.809Z,94842.47
2019-03-06T23:47:10.882Z,94836.32
2019-03-06T23:49:39.984Z,94841.13
2019-03-06T23:52:20.687Z,94839.95
2019-03-06T23:54:49.790Z,94838.02
2019-03-06T23:57:18.866Z,94832.92
2019-03-06T23:59:47.965Z,94833.50
